KCKB/CKB METAR and TAF weather

Enter ICAO airport designator
Station Type Date Time Source
KCKB METAR 2019/10/18 06:53 UTC NOAA

KCKB 180653Z AUTO 00000KT 10SM CLR 07/02 A2998 RMK AO2 SLP147 T00720022


Station Type Date Time Source
KCKB Decoded METAR 2019/10/18 06:53 UTC NOAA

HARRISON/MARION REGIONAL, WV, United States (KCKB) 39-18N 080-13W 360M
Oct 18, 2019 - 02:53 AM EDT / 2019.10.18 0653 UTC
Wind: Calm:0
Visibility: 10 mile(s):0
Sky conditions: clear
Temperature: 45.0 F (7.2 C)
Dew Point: 36.0 F (2.2 C)
Relative Humidity: 70%
Pressure (altimeter): 29.98 in. Hg (1015 hPa)
ob: KCKB 180653Z AUTO 00000KT 10SM CLR 07/02 A2998 RMK AO2 SLP147 T00720022
cycle: 7

Station Type Date Time Source
KCKB TAF 2019/10/18 06:30 UTC NOAA

TAF KCKB 180527Z 1806/1906 VRB03KT P6SM OVC050
FM180900 00000KT P6SM SCT050
FM181400 29004KT P6SM SKC

Example: see airport list